createdAt,value
2023-04-15T00:01:47.612Z,160.77
2023-04-15T00:04:15.531Z,163.77
2023-04-15T00:06:43.578Z,166.63
2023-04-15T00:09:11.351Z,168.43
2023-04-15T00:11:39.012Z,160.97
2023-04-15T00:14:08.023Z,166.17
2023-04-15T00:16:35.743Z,149.10
2023-04-15T00:19:03.601Z,170.80
2023-04-15T00:21:32.475Z,159.33
2023-04-15T00:24:00.222Z,148.23
2023-04-15T00:26:28.461Z,158.20
2023-04-15T00:28:56.933Z,155.77
2023-04-15T00:31:26.007Z,143.27
2023-04-15T00:33:53.716Z,152.67
2023-04-15T00:36:23.274Z,142.27
2023-04-15T00:38:51.403Z,147.30
2023-04-15T00:41:20.910Z,155.40
2023-04-15T00:43:48.883Z,144.17
2023-04-15T00:46:18.284Z,145.63
2023-04-15T00:48:48.056Z,147.37
2023-04-15T00:51:15.705Z,150.67
2023-04-15T00:53:43.695Z,150.23
2023-04-15T00:56:11.352Z,140.43
2023-04-15T00:58:39.060Z,143.33
2023-04-15T01:01:06.793Z,139.80
2023-04-15T01:03:34.740Z,139.07
2023-04-15T01:06:04.577Z,143.70
2023-04-15T01:08:32.405Z,139.97
2023-04-15T01:11:03.399Z,143.87
2023-04-15T01:13:32.278Z,143.33
2023-04-15T01:15:59.914Z,138.20
2023-04-15T01:18:28.157Z,144.60
2023-04-15T01:20:56.378Z,149.40
2023-04-15T01:23:26.928Z,154.73
2023-04-15T01:25:57.313Z,152.67
2023-04-15T01:28:25.356Z,148.67
2023-04-15T01:31:07.404Z,151.00
2023-04-15T01:33:38.087Z,145.60
2023-04-15T01:36:07.063Z,149.00
2023-04-15T01:38:35.082Z,145.73
2023-04-15T01:41:04.710Z,145.80
2023-04-15T01:43:32.422Z,135.87
2023-04-15T01:45:59.990Z,144.00
2023-04-15T01:48:27.548Z,141.93
2023-04-15T01:50:57.509Z,145.07
2023-04-15T01:53:25.735Z,141.00
2023-04-15T01:55:53.693Z,144.57
2023-04-15T01:58:23.025Z,154.60
2023-04-15T02:00:50.655Z,135.20
2023-04-15T02:03:18.638Z,145.07
2023-04-15T02:05:46.370Z,152.17
2023-04-15T02:08:14.431Z,150.73
2023-04-15T02:10:42.018Z,143.67
2023-04-15T02:13:10.802Z,153.83
2023-04-15T02:15:39.723Z,138.43
2023-04-15T02:18:07.449Z,146.43
2023-04-15T02:20:36.287Z,148.70
2023-04-15T02:23:07.231Z,156.37
2023-04-15T02:25:34.876Z,135.10
2023-04-15T02:28:06.180Z,132.97
2023-04-15T02:30:33.891Z,136.40
2023-04-15T02:33:05.088Z,140.30
2023-04-15T02:35:32.821Z,144.40
2023-04-15T02:38:00.968Z,141.87
2023-04-15T02:40:28.674Z,139.33
2023-04-15T02:42:56.466Z,143.83
2023-04-15T02:45:27.483Z,136.70
2023-04-15T02:47:55.313Z,157.63
2023-04-15T02:50:25.561Z,150.70
2023-04-15T02:52:53.229Z,146.17
2023-04-15T02:55:21.036Z,147.13
2023-04-15T02:57:48.898Z,146.30
2023-04-15T03:00:16.712Z,162.03
2023-04-15T03:02:47.786Z,152.03
2023-04-15T03:05:16.171Z,143.73
2023-04-15T03:07:51.166Z,147.23
2023-04-15T03:10:19.947Z,148.63
2023-04-15T03:12:48.178Z,154.60
2023-04-15T03:15:21.162Z,153.57
2023-04-15T03:17:51.825Z,152.07
2023-04-15T03:20:19.764Z,151.03
2023-04-15T03:22:48.834Z,141.57
2023-04-15T03:25:18.089Z,147.43
2023-04-15T03:27:45.995Z,146.03
2023-04-15T03:30:14.840Z,151.50
2023-04-15T03:32:42.636Z,151.10
2023-04-15T03:35:10.689Z,150.27
2023-04-15T03:37:38.576Z,141.50
2023-04-15T03:40:07.442Z,144.20
2023-04-15T03:42:36.490Z,147.90
2023-04-15T03:45:04.500Z,149.83
2023-04-15T03:47:32.188Z,141.57
2023-04-15T03:49:59.871Z,153.73
2023-04-15T03:52:27.507Z,140.57
2023-04-15T03:54:55.079Z,148.30
2023-04-15T03:57:22.684Z,149.53
2023-04-15T03:59:51.645Z,134.90
2023-04-15T04:02:19.389Z,136.60
2023-04-15T04:04:47.211Z,147.67
2023-04-15T04:07:16.800Z,129.90
2023-04-15T04:09:46.684Z,143.03
2023-04-15T04:12:14.906Z,143.13
2023-04-15T04:14:42.560Z,136.37
2023-04-15T04:17:11.637Z,139.43
2023-04-15T04:19:39.293Z,143.23
2023-04-15T04:22:07.377Z,157.43
2023-04-15T04:24:35.265Z,141.93
2023-04-15T04:27:03.021Z,148.27
2023-04-15T04:29:30.691Z,147.10
2023-04-15T04:31:58.393Z,140.63
2023-04-15T04:34:27.553Z,144.20
2023-04-15T04:36:55.134Z,140.87
2023-04-15T04:39:22.830Z,141.07
2023-04-15T04:41:52.109Z,139.53
2023-04-15T04:44:19.757Z,145.23
2023-04-15T04:46:47.375Z,140.27
2023-04-15T04:49:15.025Z,135.27
2023-04-15T04:51:43.979Z,144.97
2023-04-15T04:54:11.773Z,147.13
2023-04-15T04:56:39.770Z,133.73
2023-04-15T04:59:07.700Z,138.57
2023-04-15T05:01:35.440Z,137.03
2023-04-15T05:04:05.057Z,136.17
2023-04-15T05:06:33.002Z,142.10
2023-04-15T05:09:03.262Z,142.20
2023-04-15T05:11:31.354Z,144.47
2023-04-15T05:13:59.770Z,144.47
2023-04-15T05:16:27.539Z,134.33
2023-04-15T05:18:55.207Z,130.53
2023-04-15T05:21:22.977Z,133.20
2023-04-15T05:23:50.724Z,133.27
2023-04-15T05:26:19.751Z,139.40
2023-04-15T05:28:47.856Z,137.20
2023-04-15T05:31:15.598Z,130.43
2023-04-15T05:33:43.955Z,139.93
2023-04-15T05:36:12.041Z,135.00
2023-04-15T05:38:39.641Z,137.23
2023-04-15T05:41:07.410Z,125.00
2023-04-15T05:43:36.573Z,134.10
2023-04-15T05:46:04.403Z,136.30
2023-04-15T05:48:32.163Z,129.67
2023-04-15T05:51:00.042Z,145.00
2023-04-15T05:53:27.825Z,130.53
2023-04-15T05:55:55.719Z,141.33
2023-04-15T05:58:23.377Z,147.23
2023-04-15T06:00:52.503Z,148.77
2023-04-15T06:03:20.678Z,150.87
2023-04-15T06:05:48.450Z,141.20
2023-04-15T06:08:16.045Z,154.73
2023-04-15T06:10:43.675Z,148.77
2023-04-15T06:13:11.271Z,138.50
2023-04-15T06:15:38.891Z,164.70
2023-04-15T06:18:07.862Z,167.97
2023-04-15T06:20:36.562Z,159.77
2023-04-15T06:23:04.621Z,164.63
2023-04-15T06:25:32.231Z,175.73
2023-04-15T06:28:00.387Z,174.40
2023-04-15T06:30:28.003Z,179.03
2023-04-15T06:32:56.385Z,181.90
2023-04-15T06:35:25.396Z,193.73
2023-04-15T06:37:52.956Z,190.57
2023-04-15T06:40:20.599Z,197.33
2023-04-15T06:42:48.246Z,186.70
2023-04-15T06:45:17.084Z,198.57
2023-04-15T06:47:44.688Z,194.90
2023-04-15T06:50:12.409Z,188.33
2023-04-15T06:52:41.660Z,190.93
2023-04-15T06:55:09.984Z,205.73
2023-04-15T06:57:37.565Z,205.23
2023-04-15T07:00:05.825Z,199.50
2023-04-15T07:02:33.574Z,193.60
2023-04-15T07:05:01.593Z,201.60
2023-04-15T07:07:29.244Z,202.27
2023-04-15T07:09:58.227Z,211.23
2023-04-15T07:12:25.918Z,197.87
2023-04-15T07:14:53.543Z,195.83
2023-04-15T07:17:21.516Z,213.60
2023-04-15T07:19:49.241Z,205.50
2023-04-15T07:22:16.974Z,203.97
2023-04-15T07:24:44.680Z,204.17
2023-04-15T07:27:13.620Z,216.23
2023-04-15T07:29:41.306Z,217.90
2023-04-15T07:32:10.444Z,209.50
2023-04-15T07:34:38.481Z,226.13
2023-04-15T07:37:06.501Z,208.87
2023-04-15T07:39:34.140Z,201.53
2023-04-15T07:42:01.951Z,212.43
2023-04-15T07:44:31.605Z,219.80
2023-04-15T07:46:59.223Z,224.23
2023-04-15T07:49:27.148Z,203.30
2023-04-15T07:51:54.847Z,208.02
2023-04-15T07:54:22.398Z,227.45
2023-04-15T07:56:50.465Z,220.60
2023-04-15T07:59:18.708Z,220.50
2023-04-15T08:01:47.768Z,217.83
2023-04-15T08:04:15.818Z,219.88
2023-04-15T08:06:43.989Z,230.52
2023-04-15T08:09:11.953Z,223.15
2023-04-15T08:11:39.548Z,235.50
2023-04-15T08:14:07.179Z,232.35
2023-04-15T08:16:35.182Z,244.57
2023-04-15T08:19:04.688Z,237.88
2023-04-15T08:21:32.685Z,238.50
2023-04-15T08:24:01.604Z,253.77
2023-04-15T08:26:29.285Z,261.02
2023-04-15T08:28:57.272Z,260.05
2023-04-15T08:31:27.845Z,258.98
2023-04-15T08:33:56.828Z,252.30
2023-04-15T08:36:27.088Z,245.52
2023-04-15T08:38:54.733Z,233.25
2023-04-15T08:41:24.284Z,251.65
2023-04-15T08:43:57.879Z,256.30
2023-04-15T08:46:26.040Z,254.45
2023-04-15T08:48:57.550Z,262.17
2023-04-15T08:51:27.565Z,251.70
2023-04-15T08:53:55.778Z,263.85
2023-04-15T08:56:26.532Z,244.80
2023-04-15T08:58:54.615Z,246.13
2023-04-15T09:01:22.601Z,260.38
2023-04-15T09:03:51.457Z,245.90
2023-04-15T09:06:19.532Z,256.98
2023-04-15T09:08:48.578Z,270.38
2023-04-15T09:11:19.447Z,275.80
2023-04-15T09:13:48.268Z,254.57
2023-04-15T09:16:16.003Z,287.33
2023-04-15T09:18:44.347Z,256.00
2023-04-15T09:21:14.469Z,276.98
2023-04-15T09:23:54.657Z,267.13
2023-04-15T09:26:32.811Z,259.23
2023-04-15T09:29:06.465Z,247.88
2023-04-15T09:31:34.323Z,241.40
2023-04-15T09:34:02.905Z,248.98
2023-04-15T09:36:30.852Z,226.57
2023-04-15T09:38:59.658Z,215.52
2023-04-15T09:41:28.468Z,216.70
2023-04-15T09:43:57.514Z,218.23
2023-04-15T09:46:43.317Z,203.98
2023-04-15T09:49:11.950Z,196.25
2023-04-15T09:51:40.179Z,176.57
2023-04-15T09:54:08.254Z,183.85
2023-04-15T09:56:36.200Z,166.05
2023-04-15T09:59:06.930Z,177.30
2023-04-15T10:01:35.129Z,182.18
2023-04-15T10:04:05.559Z,167.43
2023-04-15T10:06:34.663Z,177.32
2023-04-15T10:09:02.793Z,159.18
2023-04-15T10:11:31.808Z,157.65
2023-04-15T10:14:00.324Z,151.63
2023-04-15T10:16:30.318Z,163.75
2023-04-15T10:18:59.328Z,166.65
2023-04-15T10:21:29.556Z,146.10
2023-04-15T10:23:58.413Z,151.88
2023-04-15T10:26:26.351Z,155.57
2023-04-15T10:28:54.753Z,146.25
2023-04-15T10:31:22.710Z,158.15
2023-04-15T10:33:53.021Z,146.85
2023-04-15T10:36:21.325Z,142.20
2023-04-15T10:38:48.859Z,145.70
2023-04-15T10:41:20.498Z,136.43
2023-04-15T10:43:51.358Z,129.15
2023-04-15T10:46:21.712Z,127.70
2023-04-15T10:48:52.349Z,131.77
2023-04-15T10:51:29.187Z,137.60
2023-04-15T10:54:00.715Z,135.52
2023-04-15T10:56:30.047Z,134.02
2023-04-15T10:59:00.217Z,138.35
2023-04-15T11:01:51.509Z,135.10
2023-04-15T11:04:54.039Z,121.28
2023-04-15T11:07:37.750Z,124.57
2023-04-15T11:10:28.896Z,121.40
2023-04-15T11:12:59.195Z,121.10
2023-04-15T11:15:31.002Z,116.85
2023-04-15T11:18:00.083Z,123.60
2023-04-15T11:20:29.174Z,115.15
2023-04-15T11:23:14.495Z,121.03
2023-04-15T11:25:44.002Z,115.53
2023-04-15T11:28:13.027Z,121.55
2023-04-15T11:30:41.541Z,122.20
2023-04-15T11:33:12.062Z,124.30
2023-04-15T11:35:42.033Z,129.27
2023-04-15T11:38:11.795Z,120.53
2023-04-15T11:40:40.433Z,128.95
2023-04-15T11:43:09.560Z,126.65
2023-04-15T11:45:38.384Z,115.55
2023-04-15T11:48:07.730Z,118.47
2023-04-15T11:50:35.815Z,120.85
2023-04-15T11:53:08.670Z,131.65
2023-04-15T11:55:44.265Z,127.68
2023-04-15T11:58:15.155Z,122.00
2023-04-15T12:00:48.650Z,133.23
2023-04-15T12:03:20.045Z,136.05
2023-04-15T12:06:11.530Z,129.48
2023-04-15T12:09:04.680Z,127.95
2023-04-15T12:11:35.194Z,127.35
2023-04-15T12:14:09.303Z,125.68
2023-04-15T12:16:47.816Z,128.82
2023-04-15T12:19:18.771Z,136.20
2023-04-15T12:21:48.807Z,118.85
2023-04-15T12:24:22.594Z,132.45
2023-04-15T12:26:51.885Z,132.18
2023-04-15T12:29:19.926Z,130.00
2023-04-15T12:31:49.861Z,130.30
2023-04-15T12:34:17.707Z,130.98
2023-04-15T12:36:45.279Z,141.05
2023-04-15T12:39:12.889Z,136.45
2023-04-15T12:41:42.210Z,133.85
2023-04-15T12:44:09.997Z,141.88
2023-04-15T12:46:37.701Z,135.40
2023-04-15T12:49:05.355Z,128.95
2023-04-15T12:51:33.018Z,132.68
2023-04-15T12:54:00.900Z,136.32
2023-04-15T12:56:28.721Z,128.05
2023-04-15T12:58:57.690Z,122.97
2023-04-15T13:01:26.486Z,127.22
2023-04-15T13:03:54.228Z,121.88
2023-04-15T13:06:22.485Z,129.05
2023-04-15T13:08:58.369Z,131.23
2023-04-15T13:11:27.201Z,122.82
2023-04-15T13:13:54.824Z,116.00
2023-04-15T13:16:23.845Z,124.40
2023-04-15T13:18:51.668Z,110.53
2023-04-15T13:21:19.917Z,128.18
2023-04-15T13:23:47.565Z,132.18
2023-04-15T13:26:15.529Z,120.35
2023-04-15T13:28:43.171Z,132.32
2023-04-15T13:31:10.904Z,137.88
2023-04-15T13:33:39.930Z,129.18
2023-04-15T13:36:07.949Z,141.48
2023-04-15T13:38:35.595Z,129.45
2023-04-15T13:41:03.777Z,139.52
2023-04-15T13:43:31.661Z,148.32
2023-04-15T13:45:59.334Z,150.95
2023-04-15T13:48:26.973Z,155.77
2023-04-15T13:50:55.950Z,154.23
2023-04-15T13:53:33.919Z,158.77
2023-04-15T13:56:07.417Z,144.90
2023-04-15T13:58:35.142Z,143.85
2023-04-15T14:01:05.190Z,169.85
2023-04-15T14:03:34.382Z,183.30
2023-04-15T14:06:03.616Z,200.48
2023-04-15T14:08:31.733Z,210.05
2023-04-15T14:10:59.475Z,233.27
2023-04-15T14:13:27.324Z,265.20
2023-04-15T14:15:54.974Z,240.85
2023-04-15T14:18:22.634Z,247.48
2023-04-15T14:20:50.272Z,265.88
2023-04-15T14:23:19.269Z,267.45
2023-04-15T14:25:48.316Z,269.60
2023-04-15T14:28:16.389Z,244.57
2023-04-15T14:30:44.690Z,250.40
2023-04-15T14:33:12.322Z,257.60
2023-04-15T14:35:40.115Z,251.27
2023-04-15T14:38:10.553Z,257.52
2023-04-15T14:40:39.938Z,261.83
2023-04-15T14:43:07.588Z,248.05
2023-04-15T14:45:36.276Z,242.95
2023-04-15T14:48:04.152Z,257.05
2023-04-15T14:50:31.873Z,256.55
2023-04-15T14:52:59.592Z,252.85
2023-04-15T14:55:27.200Z,271.70
2023-04-15T14:57:56.699Z,251.93
2023-04-15T15:00:24.358Z,251.63
2023-04-15T15:02:52.055Z,250.15
2023-04-15T15:05:19.838Z,266.73
2023-04-15T15:07:48.798Z,259.98
2023-04-15T15:10:16.391Z,276.88
2023-04-15T15:13:03.518Z,271.30
2023-04-15T15:15:31.252Z,279.98
2023-04-15T15:17:59.075Z,265.15
2023-04-15T15:20:26.823Z,271.20
2023-04-15T15:22:54.732Z,279.92
2023-04-15T15:25:22.571Z,293.38
2023-04-15T15:27:50.416Z,287.58
2023-04-15T15:30:19.485Z,278.08
2023-04-15T15:32:47.118Z,284.77
2023-04-15T15:35:14.880Z,281.10
2023-04-15T15:37:43.303Z,266.90
2023-04-15T15:40:12.087Z,279.38
2023-04-15T15:42:40.136Z,280.60
2023-04-15T15:45:08.493Z,268.60
2023-04-15T15:47:37.525Z,273.08
2023-04-15T15:50:06.340Z,254.57
2023-04-15T15:52:34.200Z,275.55
2023-04-15T15:55:01.929Z,271.23
2023-04-15T15:57:29.548Z,261.25
2023-04-15T16:00:07.911Z,277.60
2023-04-15T16:05:10.038Z,271.40
2023-04-15T16:07:37.657Z,258.60
2023-04-15T16:10:06.048Z,276.93
2023-04-15T16:12:34.944Z,276.60
2023-04-15T16:15:02.913Z,271.02
2023-04-15T16:17:30.701Z,274.23
2023-04-15T16:20:00.881Z,278.67
2023-04-15T16:22:28.942Z,272.80
2023-04-15T16:24:56.549Z,260.57
2023-04-15T16:27:24.166Z,263.30
2023-04-15T16:29:51.793Z,265.47
2023-04-15T16:32:19.489Z,259.07
2023-04-15T16:34:47.224Z,258.83
2023-04-15T16:37:16.408Z,246.33
2023-04-15T16:39:44.067Z,261.93
2023-04-15T16:42:11.738Z,273.10
2023-04-15T16:44:39.752Z,257.40
2023-04-15T16:47:08.913Z,271.83
2023-04-15T16:49:36.540Z,266.20
2023-04-15T16:52:04.203Z,273.70
2023-04-15T16:54:34.873Z,279.47
2023-04-15T16:57:03.639Z,270.93
2023-04-15T16:59:31.497Z,287.23
2023-04-15T17:01:59.277Z,294.10
2023-04-15T17:04:28.964Z,292.10
2023-04-15T17:06:56.724Z,287.97
2023-04-15T17:09:24.362Z,290.43
2023-04-15T17:11:53.358Z,284.93
2023-04-15T17:14:20.983Z,279.87
2023-04-15T17:16:48.611Z,281.13
2023-04-15T17:19:16.242Z,294.03
2023-04-15T17:21:43.875Z,280.00
2023-04-15T17:24:11.511Z,276.27
2023-04-15T17:26:39.285Z,281.85
2023-04-15T17:29:08.406Z,274.27
2023-04-15T17:31:36.226Z,263.33
2023-04-15T17:34:09.793Z,271.93
2023-04-15T17:36:38.658Z,246.03
2023-04-15T17:39:06.464Z,254.40
2023-04-15T17:41:34.366Z,260.43
2023-04-15T17:44:02.009Z,270.10
2023-04-15T17:46:31.836Z,260.47
2023-04-15T17:48:59.490Z,256.50
2023-04-15T17:51:28.011Z,266.07
2023-04-15T17:54:07.586Z,251.13
2023-04-15T17:56:35.676Z,245.33
2023-04-15T17:59:03.471Z,251.90
2023-04-15T18:01:32.503Z,245.93
2023-04-15T18:04:00.493Z,249.83
2023-04-15T18:06:28.330Z,248.40
2023-04-15T18:08:56.119Z,234.17
2023-04-15T18:11:23.732Z,255.50
2023-04-15T18:13:51.422Z,268.87
2023-04-15T18:16:19.464Z,257.03
2023-04-15T18:18:48.681Z,240.43
2023-04-15T18:21:16.377Z,245.00
2023-04-15T18:23:44.050Z,273.60
2023-04-15T18:26:11.657Z,252.63
2023-04-15T18:28:39.785Z,262.07
2023-04-15T18:31:07.567Z,267.20
2023-04-15T18:33:35.865Z,279.23
2023-04-15T18:36:05.015Z,268.90
2023-04-15T18:38:32.791Z,259.37
2023-04-15T18:41:00.700Z,272.33
2023-04-15T18:43:28.399Z,278.43
2023-04-15T18:45:56.191Z,285.73
2023-04-15T18:48:23.854Z,273.33
2023-04-15T18:50:54.230Z,278.33
2023-04-15T18:53:23.254Z,289.27
2023-04-15T18:55:50.863Z,260.47
2023-04-15T18:58:18.466Z,280.97
2023-04-15T19:00:46.145Z,270.70
2023-04-15T19:03:13.856Z,276.37
2023-04-15T19:05:41.749Z,269.07
2023-04-15T19:08:09.536Z,265.60
2023-04-15T19:10:38.986Z,268.90
2023-04-15T19:13:07.568Z,287.53
2023-04-15T19:15:35.396Z,272.80
2023-04-15T19:18:05.108Z,274.63
2023-04-15T19:20:35.704Z,276.83
2023-04-15T19:23:05.530Z,275.10
2023-04-15T19:25:33.477Z,281.33
2023-04-15T19:28:02.434Z,274.23
2023-04-15T19:30:32.265Z,265.80
2023-04-15T19:33:00.012Z,273.57
2023-04-15T19:35:27.691Z,275.77
2023-04-15T19:37:55.866Z,267.07
2023-04-15T19:40:23.457Z,286.30
2023-04-15T19:42:51.090Z,295.40
2023-04-15T19:45:20.185Z,274.23
2023-04-15T19:47:47.967Z,275.67
2023-04-15T19:50:16.873Z,284.27
2023-04-15T19:52:44.758Z,293.33
2023-04-15T19:55:12.474Z,281.90
2023-04-15T19:57:40.085Z,270.73
2023-04-15T20:00:09.390Z,280.20
2023-04-15T20:02:38.468Z,288.43
2023-04-15T20:05:09.631Z,297.43
2023-04-15T20:07:37.331Z,290.73
2023-04-15T20:10:11.990Z,291.90
2023-04-15T20:12:49.256Z,281.17
2023-04-15T20:15:20.797Z,276.80
2023-04-15T20:17:50.054Z,279.53
2023-04-15T20:20:18.255Z,287.33
2023-04-15T20:22:46.023Z,282.10
2023-04-15T20:25:13.657Z,302.87
2023-04-15T20:27:41.622Z,284.33
2023-04-15T20:30:10.346Z,289.33
2023-04-15T20:32:38.664Z,286.83
2023-04-15T20:35:08.638Z,294.43
2023-04-15T20:37:40.270Z,265.17
2023-04-15T20:40:09.067Z,278.83
2023-04-15T20:42:36.767Z,284.73
2023-04-15T20:45:06.967Z,278.03
2023-04-15T20:47:34.554Z,279.70
2023-04-15T20:50:02.341Z,284.50
2023-04-15T20:52:31.309Z,287.87
2023-04-15T20:54:58.890Z,287.20
2023-04-15T20:57:26.562Z,284.93
2023-04-15T20:59:54.159Z,287.77
2023-04-15T21:02:23.652Z,277.53
2023-04-15T21:04:51.445Z,292.03
2023-04-15T21:07:19.031Z,273.90
2023-04-15T21:09:48.276Z,272.77
2023-04-15T21:12:16.119Z,275.90
2023-04-15T21:14:43.858Z,283.07
2023-04-15T21:17:11.782Z,276.50
2023-04-15T21:19:40.262Z,285.47
2023-04-15T21:22:07.871Z,288.67
2023-04-15T21:24:35.460Z,286.83
2023-04-15T21:27:04.546Z,282.33
2023-04-15T21:29:32.190Z,285.47
2023-04-15T21:31:59.857Z,277.43
2023-04-15T21:34:27.586Z,302.83
2023-04-15T21:36:55.652Z,289.03
2023-04-15T21:39:23.213Z,299.10
2023-04-15T21:41:50.946Z,274.57
2023-04-15T21:44:19.923Z,274.77
2023-04-15T21:46:47.735Z,287.03
2023-04-15T21:49:15.968Z,281.10
2023-04-15T21:51:44.081Z,281.97
2023-04-15T21:54:11.697Z,285.80
2023-04-15T21:56:39.366Z,282.83
2023-04-15T21:59:07.166Z,286.10
2023-04-15T22:01:36.382Z,293.50
2023-04-15T22:04:05.844Z,273.37
2023-04-15T22:06:33.603Z,294.83
2023-04-15T22:09:01.388Z,270.43
2023-04-15T22:11:30.633Z,277.07
2023-04-15T22:13:58.697Z,288.87
2023-04-15T22:16:26.860Z,276.40
2023-04-15T22:18:56.802Z,273.10
2023-04-15T22:21:24.473Z,277.10
2023-04-15T22:23:52.329Z,255.73
2023-04-15T22:26:20.913Z,273.23
2023-04-15T22:28:48.570Z,270.60
2023-04-15T22:31:16.183Z,284.80
2023-04-15T22:33:43.836Z,277.57
2023-04-15T22:36:13.491Z,280.93
2023-04-15T22:38:41.172Z,284.90
2023-04-15T22:41:08.779Z,277.03
2023-04-15T22:43:36.421Z,281.13
2023-04-15T22:46:04.029Z,284.30
2023-04-15T22:48:31.787Z,287.90
2023-04-15T22:50:59.594Z,283.40
2023-04-15T22:53:28.788Z,273.37
2023-04-15T22:55:56.416Z,277.13
2023-04-15T22:58:24.467Z,285.20
2023-04-15T23:00:52.079Z,289.20
2023-04-15T23:03:19.772Z,284.70
2023-04-15T23:05:47.487Z,264.87
2023-04-15T23:08:15.068Z,291.43
2023-04-15T23:10:44.606Z,263.10
2023-04-15T23:13:12.215Z,279.37
2023-04-15T23:15:39.876Z,281.53
2023-04-15T23:18:07.553Z,284.57
2023-04-15T23:20:35.260Z,271.93
2023-04-15T23:23:03.069Z,265.70
2023-04-15T23:25:30.834Z,290.67
2023-04-15T23:27:59.766Z,279.37
2023-04-15T23:30:27.398Z,275.27
2023-04-15T23:32:55.143Z,277.90
2023-04-15T23:35:22.970Z,278.93
2023-04-15T23:37:50.740Z,272.63
2023-04-15T23:40:18.630Z,272.77
2023-04-15T23:42:46.456Z,271.43
2023-04-15T23:45:15.426Z,277.67
2023-04-15T23:47:43.094Z,278.00
2023-04-15T23:50:11.700Z,290.43
2023-04-15T23:52:39.387Z,278.43
2023-04-15T23:55:07.997Z,286.50
2023-04-15T23:57:35.647Z,272.77
